createdAt,value
2018-11-02T00:00:43.542Z,980.29
2018-11-02T00:01:43.455Z,980.32
2018-11-02T00:02:43.375Z,980.35
2018-11-02T00:03:44.367Z,980.38
2018-11-02T00:04:43.209Z,980.47
2018-11-02T00:05:43.120Z,980.51
2018-11-02T00:06:43.037Z,980.58
2018-11-02T00:07:42.952Z,980.61
2018-11-02T00:08:42.869Z,980.65
2018-11-02T00:09:42.784Z,980.72
2018-11-02T00:10:42.704Z,980.76
2018-11-02T00:11:42.618Z,980.82
2018-11-02T00:12:42.535Z,980.89
2018-11-02T00:13:42.450Z,980.91
2018-11-02T00:14:42.368Z,980.93
2018-11-02T00:15:42.283Z,981.01
2018-11-02T00:16:42.200Z,981.07
2018-11-02T00:17:42.114Z,981.09
2018-11-02T00:18:42.035Z,981.07
2018-11-02T00:19:41.947Z,981.08
2018-11-02T00:20:41.864Z,981.04
2018-11-02T00:21:41.780Z,981.06
2018-11-02T00:22:41.697Z,981.06
2018-11-02T00:23:41.614Z,981.00
2018-11-02T00:24:41.529Z,980.99
2018-11-02T00:25:41.444Z,980.95
2018-11-02T00:26:41.392Z,980.94
2018-11-02T00:27:41.279Z,980.97
2018-11-02T00:28:41.197Z,980.88
2018-11-02T00:29:41.109Z,980.85
2018-11-02T00:30:41.035Z,980.87
2018-11-02T00:31:41.002Z,980.85
2018-11-02T00:32:40.863Z,980.84
2018-11-02T00:33:40.779Z,980.78
2018-11-02T00:34:40.690Z,980.77
2018-11-02T00:35:40.608Z,980.75
2018-11-02T00:36:40.525Z,980.73
2018-11-02T00:37:40.440Z,980.74
2018-11-02T00:38:40.357Z,980.76
2018-11-02T00:39:40.270Z,980.78
2018-11-02T00:40:40.188Z,980.79
2018-11-02T00:41:40.109Z,980.72
2018-11-02T00:42:40.024Z,980.73
2018-11-02T00:43:39.937Z,980.70
2018-11-02T00:44:39.857Z,980.73
2018-11-02T00:45:39.793Z,980.78
2018-11-02T00:46:39.687Z,980.84
2018-11-02T00:47:39.605Z,980.87
2018-11-02T00:48:39.521Z,980.89
2018-11-02T00:49:39.436Z,980.92
2018-11-02T00:50:39.350Z,980.93
2018-11-02T00:51:39.268Z,980.95
2018-11-02T00:52:39.183Z,980.94
2018-11-02T00:53:39.099Z,980.94
2018-11-02T00:54:39.016Z,980.94
2018-11-02T00:55:38.931Z,981.00
2018-11-02T00:56:38.847Z,981.01
2018-11-02T00:57:38.767Z,981.00
2018-11-02T00:58:38.680Z,980.99
2018-11-02T00:59:38.595Z,980.97
2018-11-02T01:00:38.518Z,981.03
2018-11-02T01:01:38.430Z,981.06
2018-11-02T01:02:38.346Z,981.08
2018-11-02T01:03:38.261Z,981.06
2018-11-02T01:04:38.179Z,981.00
2018-11-02T01:05:38.547Z,980.98
2018-11-02T01:06:38.012Z,980.92
2018-11-02T01:07:37.930Z,980.88
2018-11-02T01:08:37.847Z,980.84
2018-11-02T01:09:37.759Z,980.80
2018-11-02T01:10:37.677Z,980.73
2018-11-02T01:11:37.591Z,980.78
2018-11-02T01:12:37.534Z,980.77
2018-11-02T01:13:37.427Z,980.80
2018-11-02T01:14:37.343Z,980.82
2018-11-02T01:15:37.260Z,980.85
2018-11-02T01:16:37.267Z,980.88
2018-11-02T01:17:37.102Z,980.93
2018-11-02T01:18:37.007Z,980.94
2018-11-02T01:19:36.952Z,980.93
2018-11-02T01:20:36.837Z,980.94
2018-11-02T01:21:36.757Z,980.93
2018-11-02T01:22:36.674Z,980.87
2018-11-02T01:23:36.590Z,980.84
2018-11-02T01:24:36.506Z,980.83
2018-11-02T01:25:36.422Z,980.80
2018-11-02T01:26:36.338Z,980.76
2018-11-02T01:27:36.254Z,980.74
2018-11-02T01:28:36.178Z,980.71
2018-11-02T01:29:36.083Z,980.74
2018-11-02T01:30:36.003Z,980.68
2018-11-02T01:31:35.917Z,980.67
2018-11-02T01:32:35.837Z,980.65
2018-11-02T01:33:35.753Z,980.67
2018-11-02T01:34:35.668Z,980.62
2018-11-02T01:35:35.588Z,980.58
2018-11-02T01:36:35.501Z,980.59
2018-11-02T01:37:35.416Z,980.58
2018-11-02T01:38:35.334Z,980.58
2018-11-02T01:39:35.248Z,980.56
2018-11-02T01:40:35.167Z,980.55
2018-11-02T01:41:35.081Z,980.55
2018-11-02T01:42:35.004Z,980.53
2018-11-02T01:43:34.925Z,980.51
2018-11-02T01:44:34.827Z,980.52
2018-11-02T01:45:34.751Z,980.53
2018-11-02T01:46:34.661Z,980.55
2018-11-02T01:47:34.609Z,980.51
2018-11-02T01:48:34.492Z,980.52
2018-11-02T01:49:34.409Z,980.51
2018-11-02T01:50:34.323Z,980.52
2018-11-02T01:51:34.239Z,980.51
2018-11-02T01:52:34.155Z,980.49
2018-11-02T01:53:34.079Z,980.46
2018-11-02T01:54:33.988Z,980.48
2018-11-02T01:55:33.903Z,980.48
2018-11-02T01:56:33.821Z,980.46
2018-11-02T01:57:33.741Z,980.52
2018-11-02T01:58:33.652Z,980.49
2018-11-02T01:59:33.567Z,980.53
2018-11-02T02:00:33.486Z,980.56
2018-11-02T02:01:33.401Z,980.59
2018-11-02T02:02:33.319Z,980.57
2018-11-02T02:03:33.234Z,980.63
2018-11-02T02:04:33.149Z,980.66
2018-11-02T02:05:33.064Z,980.70
2018-11-02T02:06:32.982Z,980.75
2018-11-02T02:07:32.895Z,980.73
2018-11-02T02:08:32.813Z,980.73
2018-11-02T02:09:32.731Z,980.72
2018-11-02T02:10:32.671Z,980.72
2018-11-02T02:11:32.561Z,980.69
2018-11-02T02:12:32.479Z,980.74
2018-11-02T02:13:32.394Z,980.77
2018-11-02T02:14:32.307Z,980.77
2018-11-02T02:15:32.224Z,980.81
2018-11-02T02:16:32.155Z,980.82
2018-11-02T02:17:32.062Z,980.82
2018-11-02T02:18:32.024Z,980.80
2018-11-02T02:19:31.888Z,980.79
2018-11-02T02:20:31.805Z,980.78
2018-11-02T02:21:31.735Z,980.79
2018-11-02T02:22:31.640Z,980.79
2018-11-02T02:23:31.553Z,980.86
2018-11-02T02:24:31.470Z,980.92
2018-11-02T02:25:31.385Z,980.91
2018-11-02T02:26:31.307Z,980.91
2018-11-02T02:27:31.224Z,980.92
2018-11-02T02:28:31.137Z,980.95
2018-11-02T02:29:31.056Z,980.92
2018-11-02T02:30:30.969Z,980.93
2018-11-02T02:31:30.885Z,980.94
2018-11-02T02:32:30.803Z,980.95
2018-11-02T02:33:30.717Z,980.88
2018-11-02T02:34:30.640Z,980.93
2018-11-02T02:35:30.554Z,980.93
2018-11-02T02:36:30.466Z,980.98
2018-11-02T02:37:30.385Z,980.99
2018-11-02T02:38:30.301Z,980.98
2018-11-02T02:39:30.218Z,981.00
2018-11-02T02:40:30.129Z,981.02
2018-11-02T02:41:30.049Z,981.01
2018-11-02T02:42:29.962Z,981.02
2018-11-02T02:43:29.877Z,981.08
2018-11-02T02:44:29.798Z,981.09
2018-11-02T02:45:29.712Z,981.10
2018-11-02T02:46:29.637Z,981.08
2018-11-02T02:47:29.541Z,981.08
2018-11-02T02:48:29.459Z,981.13
2018-11-02T02:49:29.377Z,981.16
2018-11-02T02:50:29.319Z,981.21
2018-11-02T02:51:29.207Z,981.25
2018-11-02T02:52:29.149Z,981.23
2018-11-02T02:53:29.044Z,981.30
2018-11-02T02:54:28.957Z,981.30
2018-11-02T02:55:28.871Z,981.31
2018-11-02T02:56:28.791Z,981.35
2018-11-02T02:57:28.732Z,981.37
2018-11-02T02:58:28.621Z,981.41
2018-11-02T02:59:28.536Z,981.44
2018-11-02T03:00:28.454Z,981.44
2018-11-02T03:01:28.369Z,981.48
2018-11-02T03:02:28.291Z,981.46
2018-11-02T03:03:28.209Z,981.44
2018-11-02T03:04:28.127Z,981.45
2018-11-02T03:05:28.038Z,981.47
2018-11-02T03:06:27.980Z,981.50
2018-11-02T03:07:27.865Z,981.48
2018-11-02T03:08:27.780Z,981.45
2018-11-02T03:09:27.706Z,981.42
2018-11-02T03:10:27.662Z,981.41
2018-11-02T03:11:27.534Z,981.41
2018-11-02T03:12:27.453Z,981.39
2018-11-02T03:13:27.367Z,981.43
2018-11-02T03:14:27.282Z,981.44
2018-11-02T03:15:27.193Z,981.49
2018-11-02T03:16:27.112Z,981.45
2018-11-02T03:17:27.029Z,981.52
2018-11-02T03:18:26.977Z,981.54
2018-11-02T03:19:26.877Z,981.54
2018-11-02T03:20:26.780Z,981.59
2018-11-02T03:21:26.704Z,981.62
2018-11-02T03:22:26.684Z,981.60
2018-11-02T03:23:26.524Z,981.64
2018-11-02T03:24:26.439Z,981.59
2018-11-02T03:25:26.354Z,981.59
2018-11-02T03:26:26.273Z,981.54
2018-11-02T03:27:26.188Z,981.56
2018-11-02T03:28:26.108Z,981.56
2018-11-02T03:29:26.022Z,981.54
2018-11-02T03:30:25.939Z,981.53
2018-11-02T03:31:25.853Z,981.56
2018-11-02T03:32:25.772Z,981.58
2018-11-02T03:33:25.681Z,981.61
2018-11-02T03:34:25.598Z,981.63
2018-11-02T03:35:25.514Z,981.65
2018-11-02T03:36:25.434Z,981.70
2018-11-02T03:37:25.346Z,981.65
2018-11-02T03:38:25.263Z,981.67
2018-11-02T03:39:25.192Z,981.67
2018-11-02T03:40:25.093Z,981.66
2018-11-02T03:41:25.009Z,981.69
2018-11-02T03:42:24.951Z,981.67
2018-11-02T03:43:24.845Z,981.71
2018-11-02T03:44:24.794Z,981.70
2018-11-02T03:45:24.674Z,981.70
2018-11-02T03:46:24.594Z,981.72
2018-11-02T03:47:24.506Z,981.71
2018-11-02T03:48:24.427Z,981.69
2018-11-02T03:49:24.379Z,981.74
2018-11-02T03:50:24.341Z,981.81
2018-11-02T03:51:24.168Z,981.82
2018-11-02T03:52:24.085Z,981.83
2018-11-02T03:53:24.001Z,981.82
2018-11-02T03:54:23.928Z,981.85
2018-11-02T03:55:24.027Z,981.83
2018-11-02T03:56:23.750Z,981.85
2018-11-02T03:57:23.677Z,981.83
2018-11-02T03:58:23.582Z,981.87
2018-11-02T03:59:23.494Z,981.89
2018-11-02T04:00:23.824Z,981.92
2018-11-02T04:01:23.329Z,981.89
2018-11-02T04:02:23.243Z,981.88
2018-11-02T04:03:23.159Z,981.88
2018-11-02T04:04:23.076Z,981.90
2018-11-02T04:05:22.991Z,981.88
2018-11-02T04:06:22.907Z,981.80
2018-11-02T04:07:22.826Z,981.83
2018-11-02T04:08:22.738Z,981.88
2018-11-02T04:09:22.722Z,981.97
2018-11-02T04:10:22.575Z,981.93
2018-11-02T04:11:22.490Z,981.92
2018-11-02T04:12:22.401Z,981.96
2018-11-02T04:13:22.317Z,981.95
2018-11-02T04:14:22.234Z,981.96
2018-11-02T04:15:22.152Z,981.98
2018-11-02T04:16:22.066Z,982.00
2018-11-02T04:17:22.037Z,982.04
2018-11-02T04:18:21.899Z,982.04
2018-11-02T04:19:21.811Z,982.07
2018-11-02T04:20:21.730Z,982.02
2018-11-02T04:21:21.645Z,981.99
2018-11-02T04:22:21.558Z,981.98
2018-11-02T04:23:21.477Z,981.97
2018-11-02T04:24:21.414Z,981.96
2018-11-02T04:25:21.307Z,981.94
2018-11-02T04:26:21.225Z,981.95
2018-11-02T04:27:21.138Z,981.96
2018-11-02T04:28:21.057Z,981.98
2018-11-02T04:29:20.973Z,982.03
2018-11-02T04:30:20.897Z,982.09
2018-11-02T04:31:20.806Z,982.09
2018-11-02T04:32:20.719Z,982.06
2018-11-02T04:33:20.640Z,982.07
2018-11-02T04:34:20.554Z,982.14
2018-11-02T04:35:20.525Z,982.09
2018-11-02T04:36:20.385Z,982.07
2018-11-02T04:37:20.298Z,982.05
2018-11-02T04:38:20.215Z,982.00
2018-11-02T04:39:20.129Z,982.03
2018-11-02T04:40:20.045Z,982.08
2018-11-02T04:41:19.961Z,982.11
2018-11-02T04:42:19.879Z,982.16
2018-11-02T04:43:19.864Z,982.21
2018-11-02T04:44:19.708Z,982.24
2018-11-02T04:45:19.624Z,982.27
2018-11-02T04:46:19.539Z,982.30
2018-11-02T04:47:19.453Z,982.35
2018-11-02T04:48:19.371Z,982.33
2018-11-02T04:49:19.291Z,982.32
2018-11-02T04:50:19.203Z,982.36
2018-11-02T04:51:19.119Z,982.39
2018-11-02T04:52:19.036Z,982.36
2018-11-02T04:53:18.956Z,982.36
2018-11-02T04:54:18.866Z,982.35
2018-11-02T04:55:18.782Z,982.39
2018-11-02T04:56:18.696Z,982.43
2018-11-02T04:57:18.612Z,982.44
2018-11-02T04:58:18.529Z,982.45
2018-11-02T04:59:18.447Z,982.48
2018-11-02T05:00:18.360Z,982.48
2018-11-02T05:01:18.276Z,982.47
2018-11-02T05:02:18.193Z,982.49
2018-11-02T05:03:18.108Z,982.50
2018-11-02T05:04:18.023Z,982.46
2018-11-02T05:05:17.937Z,982.48
2018-11-02T05:06:17.923Z,982.55
2018-11-02T05:07:17.769Z,982.53
2018-11-02T05:08:17.685Z,982.53
2018-11-02T05:09:17.613Z,982.54
2018-11-02T05:10:17.518Z,982.55
2018-11-02T05:11:17.519Z,982.60
2018-11-02T05:12:17.347Z,982.64
2018-11-02T05:13:17.264Z,982.61
2018-11-02T05:14:17.186Z,982.63
2018-11-02T05:15:17.093Z,982.61
2018-11-02T05:16:17.010Z,982.65
2018-11-02T05:17:16.935Z,982.66
2018-11-02T05:18:16.844Z,982.66
2018-11-02T05:19:16.793Z,982.70
2018-11-02T05:20:16.676Z,982.67
2018-11-02T05:21:16.654Z,982.66
2018-11-02T05:22:16.507Z,982.62
2018-11-02T05:23:16.423Z,982.61
2018-11-02T05:24:16.340Z,982.63
2018-11-02T05:25:16.255Z,982.62
2018-11-02T05:26:16.169Z,982.68
2018-11-02T05:27:16.084Z,982.72
2018-11-02T05:28:16.006Z,982.74
2018-11-02T05:29:15.919Z,982.81
2018-11-02T05:30:15.835Z,982.82
2018-11-02T05:31:15.746Z,982.83
2018-11-02T05:32:15.668Z,982.85
2018-11-02T05:33:15.577Z,982.85
2018-11-02T05:34:15.494Z,982.85
2018-11-02T05:35:15.413Z,982.89
2018-11-02T05:36:15.327Z,982.85
2018-11-02T05:37:15.240Z,982.89
2018-11-02T05:38:15.159Z,982.92
2018-11-02T05:39:15.090Z,982.89
2018-11-02T05:40:14.988Z,982.91
2018-11-02T05:41:14.913Z,982.91
2018-11-02T05:42:14.820Z,982.92
2018-11-02T05:43:14.736Z,982.93
2018-11-02T05:44:14.652Z,982.95
2018-11-02T05:45:14.570Z,982.96
2018-11-02T05:46:14.486Z,983.01
2018-11-02T05:47:14.474Z,983.02
2018-11-02T05:48:14.319Z,983.03
2018-11-02T05:49:14.229Z,983.03
2018-11-02T05:50:14.147Z,983.07
2018-11-02T05:51:14.062Z,983.07
2018-11-02T05:52:13.977Z,983.05
2018-11-02T05:53:13.895Z,983.09
2018-11-02T05:54:13.866Z,983.06
2018-11-02T05:55:13.735Z,983.02
2018-11-02T05:56:13.641Z,983.02
2018-11-02T05:57:13.562Z,983.03
2018-11-02T05:58:13.474Z,983.06
2018-11-02T05:59:13.388Z,983.08
2018-11-02T06:00:13.311Z,983.08
2018-11-02T06:01:13.221Z,983.06
2018-11-02T06:02:13.138Z,983.05
2018-11-02T06:03:13.066Z,983.06
2018-11-02T06:04:12.969Z,983.08
2018-11-02T06:05:12.884Z,983.10
2018-11-02T06:06:12.803Z,983.12
2018-11-02T06:07:12.715Z,983.14
2018-11-02T06:08:12.632Z,983.10
2018-11-02T06:09:12.551Z,983.12
2018-11-02T06:10:12.465Z,983.13
2018-11-02T06:11:12.384Z,983.10
2018-11-02T06:12:12.299Z,983.14
2018-11-02T06:13:12.210Z,983.15
2018-11-02T06:14:12.126Z,983.14
2018-11-02T06:15:12.043Z,983.15
2018-11-02T06:16:11.958Z,983.15
2018-11-02T06:17:11.876Z,983.14
2018-11-02T06:18:11.790Z,983.19
2018-11-02T06:19:11.707Z,983.18
2018-11-02T06:20:11.629Z,983.23
2018-11-02T06:21:11.540Z,983.27
2018-11-02T06:22:11.453Z,983.31
2018-11-02T06:23:11.377Z,983.29
2018-11-02T06:24:11.331Z,983.30
2018-11-02T06:25:11.202Z,983.27
2018-11-02T06:26:11.117Z,983.25
2018-11-02T06:27:11.036Z,983.29
2018-11-02T06:28:10.969Z,983.27
2018-11-02T06:29:10.867Z,983.26
2018-11-02T06:30:10.783Z,983.32
2018-11-02T06:31:10.697Z,983.34
2018-11-02T06:32:10.620Z,983.39
2018-11-02T06:33:10.531Z,983.39
2018-11-02T06:34:10.449Z,983.41
2018-11-02T06:35:10.361Z,983.41
2018-11-02T06:36:10.280Z,983.40
2018-11-02T06:37:10.237Z,983.42
2018-11-02T06:38:10.111Z,983.42
2018-11-02T06:39:10.026Z,983.37
2018-11-02T06:40:09.965Z,983.41
2018-11-02T06:41:09.858Z,983.43
2018-11-02T06:42:09.777Z,983.40
2018-11-02T06:43:09.697Z,983.41
2018-11-02T06:44:09.609Z,983.44
2018-11-02T06:45:09.554Z,983.44
2018-11-02T06:46:09.441Z,983.51
2018-11-02T06:47:09.356Z,983.52
2018-11-02T06:48:09.271Z,983.53
2018-11-02T06:49:09.188Z,983.55
2018-11-02T06:50:09.104Z,983.59
2018-11-02T06:51:09.021Z,983.60
2018-11-02T06:52:08.937Z,983.61
2018-11-02T06:53:08.855Z,983.64
2018-11-02T06:54:08.771Z,983.68
2018-11-02T06:55:08.832Z,983.63
2018-11-02T06:56:08.602Z,983.69
2018-11-02T06:57:08.523Z,983.68
2018-11-02T06:58:08.438Z,983.66
2018-11-02T06:59:08.444Z,983.66
2018-11-02T07:00:08.372Z,983.64
2018-11-02T07:01:08.182Z,983.57
2018-11-02T07:02:08.103Z,983.56
2018-11-02T07:03:08.024Z,983.55
2018-11-02T07:04:07.934Z,983.51
2018-11-02T07:05:07.849Z,983.56
2018-11-02T07:06:07.767Z,983.53
2018-11-02T07:07:07.720Z,983.59
2018-11-02T07:08:07.725Z,983.59
2018-11-02T07:09:07.517Z,983.65
2018-11-02T07:10:07.429Z,983.71
2018-11-02T07:11:07.365Z,983.77
2018-11-02T07:12:07.266Z,983.80
2018-11-02T07:13:07.179Z,983.79
2018-11-02T07:14:07.096Z,983.78
2018-11-02T07:15:07.012Z,983.73
2018-11-02T07:16:06.930Z,983.73
2018-11-02T07:17:06.845Z,983.77
2018-11-02T07:18:06.763Z,983.78
2018-11-02T07:19:06.684Z,983.80
2018-11-02T07:20:06.595Z,983.85
2018-11-02T07:21:06.518Z,983.85
2018-11-02T07:22:06.427Z,983.87
2018-11-02T07:23:06.347Z,983.90
2018-11-02T07:24:06.261Z,983.92
2018-11-02T07:25:06.359Z,983.92
2018-11-02T07:26:06.095Z,983.93
2018-11-02T07:27:06.012Z,983.97
2018-11-02T07:28:05.930Z,984.03
2018-11-02T07:29:05.845Z,984.04
2018-11-02T07:30:05.761Z,984.05
2018-11-02T07:31:05.679Z,984.04
2018-11-02T07:32:05.591Z,984.06
2018-11-02T07:33:05.513Z,984.05
2018-11-02T07:34:05.448Z,984.07
2018-11-02T07:35:05.343Z,984.10
2018-11-02T07:36:05.259Z,984.05
2018-11-02T07:37:05.176Z,984.09
2018-11-02T07:38:05.096Z,984.13
2018-11-02T07:39:05.046Z,984.19
2018-11-02T07:40:04.928Z,984.16
2018-11-02T07:41:04.842Z,984.19
2018-11-02T07:42:04.758Z,984.20
2018-11-02T07:43:04.680Z,984.18
2018-11-02T07:44:04.593Z,984.17
2018-11-02T07:45:04.507Z,984.12
2018-11-02T07:46:04.424Z,984.18
2018-11-02T07:47:04.367Z,984.18
2018-11-02T07:48:04.257Z,984.15
2018-11-02T07:49:04.174Z,984.17
2018-11-02T07:50:04.091Z,984.19
2018-11-02T07:51:04.009Z,984.19
2018-11-02T07:52:03.923Z,984.17
2018-11-02T07:53:03.857Z,984.18
2018-11-02T07:54:03.767Z,984.15
2018-11-02T07:55:03.680Z,984.10
2018-11-02T07:56:03.590Z,984.09
2018-11-02T07:57:03.508Z,984.07
2018-11-02T07:58:03.424Z,984.02
2018-11-02T07:59:03.355Z,983.98
2018-11-02T08:00:03.255Z,983.96
2018-11-02T08:01:03.175Z,983.90
2018-11-02T08:02:03.164Z,983.94
2018-11-02T08:03:03.005Z,983.95
2018-11-02T08:04:02.921Z,983.97
2018-11-02T08:05:02.840Z,984.01
2018-11-02T08:06:02.755Z,984.03
2018-11-02T08:07:02.670Z,984.04
2018-11-02T08:08:02.591Z,984.02
2018-11-02T08:09:02.509Z,984.05
2018-11-02T08:10:02.425Z,984.00
2018-11-02T08:11:02.335Z,984.05
2018-11-02T08:12:02.268Z,984.09
2018-11-02T08:13:02.170Z,984.13
2018-11-02T08:14:02.090Z,984.14
2018-11-02T08:15:02.003Z,984.11
2018-11-02T08:16:01.923Z,984.09
2018-11-02T08:17:01.842Z,984.06
2018-11-02T08:18:01.752Z,984.09
2018-11-02T08:19:01.717Z,984.11
2018-11-02T08:20:01.585Z,984.14
2018-11-02T08:21:01.503Z,984.16
2018-11-02T08:22:01.418Z,984.19
2018-11-02T08:23:01.333Z,984.21
2018-11-02T08:24:01.270Z,984.17
2018-11-02T08:25:01.169Z,984.11
2018-11-02T08:26:01.083Z,984.15
2018-11-02T08:27:01.000Z,984.10
2018-11-02T08:28:00.924Z,984.09
2018-11-02T08:29:00.838Z,984.06
2018-11-02T08:30:00.752Z,984.04
2018-11-02T08:31:00.665Z,984.04
2018-11-02T08:32:00.605Z,984.03
2018-11-02T08:33:00.503Z,984.07
2018-11-02T08:34:00.421Z,984.09
2018-11-02T08:35:00.340Z,984.12
2018-11-02T08:36:00.261Z,984.13
2018-11-02T08:37:00.172Z,984.16
2018-11-02T08:38:00.094Z,984.20
2018-11-02T08:39:00.005Z,984.24
2018-11-02T08:39:59.926Z,984.27
2018-11-02T08:40:59.838Z,984.19
2018-11-02T08:41:59.755Z,984.21
2018-11-02T08:42:59.676Z,984.23
2018-11-02T08:43:59.593Z,984.19
2018-11-02T08:44:59.512Z,984.25
2018-11-02T08:45:59.436Z,984.26
2018-11-02T08:46:59.343Z,984.27
2018-11-02T08:47:59.262Z,984.27
2018-11-02T08:48:59.228Z,984.28
2018-11-02T08:49:59.094Z,984.32
2018-11-02T08:50:59.011Z,984.36
2018-11-02T08:51:58.932Z,984.39
2018-11-02T08:52:58.849Z,984.43
2018-11-02T08:53:58.769Z,984.39
2018-11-02T08:54:58.682Z,984.42
2018-11-02T08:55:58.600Z,984.39
2018-11-02T08:56:58.515Z,984.37
2018-11-02T08:57:58.562Z,984.36
2018-11-02T08:58:58.425Z,984.34
2018-11-02T08:59:58.302Z,984.33
2018-11-02T09:00:58.188Z,984.35
2018-11-02T09:01:58.106Z,984.41
2018-11-02T09:02:58.021Z,984.41
2018-11-02T09:03:57.940Z,984.45
2018-11-02T09:04:57.918Z,984.45
2018-11-02T09:05:57.778Z,984.43
2018-11-02T09:06:57.692Z,984.40
2018-11-02T09:07:57.617Z,984.35
2018-11-02T09:08:57.530Z,984.32
2018-11-02T09:09:57.447Z,984.30
2018-11-02T09:10:57.376Z,984.31
2018-11-02T09:11:57.303Z,984.29
2018-11-02T09:12:57.198Z,984.26
2018-11-02T09:13:57.122Z,984.30
2018-11-02T09:14:57.035Z,984.30
2018-11-02T09:15:56.956Z,984.28
2018-11-02T09:16:56.872Z,984.30
2018-11-02T09:17:56.791Z,984.31
2018-11-02T09:18:56.706Z,984.33
2018-11-02T09:19:56.626Z,984.34
2018-11-02T09:20:56.543Z,984.36
2018-11-02T09:21:56.467Z,984.32
2018-11-02T09:22:56.379Z,984.29
2018-11-02T09:23:56.315Z,984.31
2018-11-02T09:24:56.219Z,984.31
2018-11-02T09:25:56.201Z,984.34
2018-11-02T09:26:56.056Z,984.34
2018-11-02T09:27:55.971Z,984.36
2018-11-02T09:28:55.896Z,984.39
2018-11-02T09:29:55.808Z,984.36
2018-11-02T09:30:55.724Z,984.35
2018-11-02T09:31:55.645Z,984.35
2018-11-02T09:32:55.566Z,984.29
2018-11-02T09:33:55.481Z,984.28
2018-11-02T09:34:55.403Z,984.29
2018-11-02T09:35:55.321Z,984.30
2018-11-02T09:36:55.239Z,984.27
2018-11-02T09:37:55.156Z,984.28
2018-11-02T09:38:55.076Z,984.30
2018-11-02T09:39:54.992Z,984.30
2018-11-02T09:40:54.914Z,984.36
2018-11-02T09:41:54.828Z,984.32
2018-11-02T09:42:54.766Z,984.34
2018-11-02T09:43:54.665Z,984.33
2018-11-02T09:44:54.585Z,984.32
2018-11-02T09:45:54.507Z,984.28
2018-11-02T09:46:54.426Z,984.25
2018-11-02T09:47:54.350Z,984.26
2018-11-02T09:48:54.278Z,984.26
2018-11-02T09:49:54.182Z,984.30
2018-11-02T09:50:54.107Z,984.32
2018-11-02T09:51:54.044Z,984.34
2018-11-02T09:52:53.939Z,984.39
2018-11-02T09:53:53.854Z,984.42
2018-11-02T09:54:53.775Z,984.39
2018-11-02T09:55:53.694Z,984.33
2018-11-02T09:56:53.611Z,984.33
2018-11-02T09:57:53.732Z,984.32
2018-11-02T09:58:53.470Z,984.32
2018-11-02T09:59:53.370Z,984.35
2018-11-02T10:00:53.300Z,984.36
2018-11-02T10:01:53.271Z,984.36
2018-11-02T10:02:53.128Z,984.36
2018-11-02T10:03:53.046Z,984.39
2018-11-02T10:04:52.966Z,984.36
2018-11-02T10:05:52.887Z,984.37
2018-11-02T10:06:52.804Z,984.36
2018-11-02T10:07:52.723Z,984.30
2018-11-02T10:08:52.642Z,984.31
2018-11-02T10:09:52.562Z,984.26
2018-11-02T10:10:52.481Z,984.23
2018-11-02T10:11:52.400Z,984.21
2018-11-02T10:12:52.322Z,984.17
2018-11-02T10:13:52.239Z,984.19
2018-11-02T10:14:52.157Z,984.16
2018-11-02T10:15:52.076Z,984.16
2018-11-02T10:16:51.995Z,984.15
2018-11-02T10:17:51.918Z,984.15
2018-11-02T10:18:51.840Z,984.12
2018-11-02T10:19:51.792Z,984.09
2018-11-02T10:20:51.680Z,984.10
2018-11-02T10:21:51.595Z,984.14
2018-11-02T10:22:51.512Z,984.11
2018-11-02T10:23:51.552Z,984.12
2018-11-02T10:24:51.352Z,984.11
2018-11-02T10:25:51.271Z,984.06
2018-11-02T10:26:51.196Z,984.07
2018-11-02T10:27:51.110Z,984.03
2018-11-02T10:28:51.029Z,984.03
2018-11-02T10:29:50.955Z,984.06
2018-11-02T10:30:50.868Z,984.11
2018-11-02T10:31:50.788Z,984.20
2018-11-02T10:32:50.709Z,984.19
2018-11-02T10:33:50.629Z,984.14
2018-11-02T10:34:50.547Z,984.14
2018-11-02T10:35:50.553Z,984.09
2018-11-02T10:36:50.388Z,984.11
2018-11-02T10:37:50.306Z,984.06
2018-11-02T10:38:50.224Z,984.04
2018-11-02T10:39:50.150Z,984.02
2018-11-02T10:40:50.066Z,983.99
2018-11-02T10:41:49.988Z,983.96
2018-11-02T10:42:49.907Z,983.92
2018-11-02T10:43:49.826Z,983.84
2018-11-02T10:44:49.840Z,983.80
2018-11-02T10:45:49.667Z,983.73
2018-11-02T10:46:49.599Z,983.71
2018-11-02T10:47:49.504Z,983.66
2018-11-02T10:48:49.425Z,983.67
2018-11-02T10:49:49.344Z,983.64
2018-11-02T10:50:49.266Z,983.64
2018-11-02T10:51:49.190Z,983.65
2018-11-02T10:52:49.105Z,983.68
2018-11-02T10:53:49.028Z,983.64
2018-11-02T10:54:48.946Z,983.67
2018-11-02T10:55:48.864Z,983.70
2018-11-02T10:56:48.784Z,983.72
2018-11-02T10:57:48.704Z,983.74
2018-11-02T10:58:48.637Z,983.74
2018-11-02T10:59:48.548Z,983.73
2018-11-02T11:00:48.580Z,983.74
2018-11-02T11:01:48.398Z,983.65
2018-11-02T11:02:48.303Z,983.61
2018-11-02T11:03:48.226Z,983.64
2018-11-02T11:04:48.143Z,983.65
2018-11-02T11:05:48.086Z,983.67
2018-11-02T11:06:47.983Z,983.71
2018-11-02T11:07:47.907Z,983.73
2018-11-02T11:08:47.825Z,983.77
2018-11-02T11:09:47.746Z,983.76
2018-11-02T11:10:47.667Z,983.71
2018-11-02T11:11:47.833Z,983.70
2018-11-02T11:12:47.799Z,983.71
2018-11-02T11:13:47.731Z,983.65
2018-11-02T11:14:47.350Z,983.63
2018-11-02T11:15:47.278Z,983.64
2018-11-02T11:16:47.194Z,983.65
2018-11-02T11:17:47.111Z,983.63
2018-11-02T11:18:47.041Z,983.60
2018-11-02T11:19:46.952Z,983.58
2018-11-02T11:20:46.875Z,983.54
2018-11-02T11:21:46.795Z,983.56
2018-11-02T11:22:46.715Z,983.54
2018-11-02T11:23:46.639Z,983.50
2018-11-02T11:24:46.558Z,983.49
2018-11-02T11:25:46.482Z,983.56
2018-11-02T11:26:46.404Z,983.56
2018-11-02T11:27:46.327Z,983.57
2018-11-02T11:28:46.246Z,983.58
2018-11-02T11:29:46.169Z,983.54
2018-11-02T11:30:46.093Z,983.54
2018-11-02T11:31:46.012Z,983.57
2018-11-02T11:32:45.935Z,983.57
2018-11-02T11:33:45.859Z,983.64
2018-11-02T11:34:45.781Z,983.74
2018-11-02T11:35:45.703Z,983.77
2018-11-02T11:36:45.659Z,983.78
2018-11-02T11:37:45.818Z,983.82
2018-11-02T11:38:45.471Z,983.80
2018-11-02T11:39:45.475Z,983.76
2018-11-02T11:40:45.320Z,983.80
2018-11-02T11:41:45.241Z,983.74
2018-11-02T11:42:45.167Z,983.77
2018-11-02T11:43:45.090Z,983.76
2018-11-02T11:44:45.012Z,983.76
2018-11-02T11:45:44.947Z,983.77
2018-11-02T11:46:44.856Z,983.72
2018-11-02T11:47:44.781Z,983.73
2018-11-02T11:48:44.836Z,983.71
2018-11-02T11:49:44.637Z,983.67
2018-11-02T11:50:44.550Z,983.71
2018-11-02T11:51:44.472Z,983.66
2018-11-02T11:52:44.395Z,983.66
2018-11-02T11:53:44.319Z,983.63
2018-11-02T11:54:44.252Z,983.64
2018-11-02T11:55:44.166Z,983.62
2018-11-02T11:56:44.087Z,983.63
2018-11-02T11:57:44.008Z,983.61
2018-11-02T11:58:43.930Z,983.59
2018-11-02T11:59:43.854Z,983.53
2018-11-02T12:00:43.778Z,983.45
2018-11-02T12:01:43.698Z,983.35
2018-11-02T12:02:43.620Z,983.35
2018-11-02T12:03:43.545Z,983.37
2018-11-02T12:04:43.526Z,983.33
2018-11-02T12:05:43.431Z,983.37
2018-11-02T12:06:43.312Z,983.32
2018-11-02T12:07:43.236Z,983.36
2018-11-02T12:08:43.158Z,983.39
2018-11-02T12:09:43.092Z,983.46
2018-11-02T12:10:43.021Z,983.42
2018-11-02T12:11:42.925Z,983.43
2018-11-02T12:12:42.854Z,983.43
2018-11-02T12:13:42.769Z,983.44
2018-11-02T12:14:42.689Z,983.48
2018-11-02T12:15:42.676Z,983.47
2018-11-02T12:16:42.537Z,983.48
2018-11-02T12:17:42.457Z,983.47
2018-11-02T12:18:42.377Z,983.52
2018-11-02T12:19:42.301Z,983.54
2018-11-02T12:20:42.227Z,983.57
2018-11-02T12:21:42.197Z,983.64
2018-11-02T12:22:42.066Z,983.60
2018-11-02T12:23:41.991Z,983.61
2018-11-02T12:24:41.913Z,983.59
2018-11-02T12:25:41.858Z,983.59
2018-11-02T12:26:41.752Z,983.59
2018-11-02T12:27:41.676Z,983.59